Time;durP1;ratioP1;P1;durP2;ratioP2;P2;SDS_P1;SDS_P2;PMS_P1;PMS_P2;Temp;Humidity;BMP_temperature;BMP_pressure;BME280_temperature;BME280_humidity;BME280_pressure;Samples;Min_cycle;Max_cycle;Signal;HPM_P1;HPM_P2
2023/08/28 00:00:18;;;;;;;0.13;0.10;;;;;;;;;;4944651;28;20081;-69
2023/08/28 00:02:46;;;;;;;0.03;0.03;;;;;;;;;;4944423;29;20051;-71
2023/08/28 00:05:14;;;;;;;0.00;0.00;;;;;;;;;;4963481;28;20051;-69
2023/08/28 00:07:41;;;;;;;0.00;0.00;;;;;;;;;;4947135;29;20268;-69
2023/08/28 00:10:09;;;;;;;0.00;0.00;;;;;;;;;;4948020;28;20059;-70
2023/08/28 00:12:40;;;;;;;0.00;0.00;;;;;;;;;;4945276;29;20051;-69
2023/08/28 00:15:09;;;;;;;0.00;0.00;;;;;;;;;;4948261;29;20134;-70
2023/08/28 00:17:36;;;;;;;0.00;0.00;;;;;;;;;;4948287;29;20063;-69
2023/08/28 00:20:07;;;;;;;2.15;2.05;;;;;;;;;;4947085;28;20355;-70
2023/08/28 00:22:38;;;;;;;0.00;0.00;;;;;;;;;;4949529;28;20086;-70
2023/08/28 00:25:09;;;;;;;0.23;0.23;;;;;;;;;;4948510;29;20298;-69
2023/08/28 00:27:36;;;;;;;0.00;0.00;;;;;;;;;;4947946;29;20294;-70
2023/08/28 00:30:04;;;;;;;0.00;0.00;;;;;;;;;;4948033;28;20043;-70
2023/08/28 00:32:34;;;;;;;0.00;0.00;;;;;;;;;;4945813;29;20544;-69
2023/08/28 00:35:02;;;;;;;0.00;0.00;;;;;;;;;;4941723;28;20157;-69
2023/08/28 00:37:29;;;;;;;0.00;0.00;;;;;;;;;;4946956;29;20054;-69
2023/08/28 00:39:57;;;;;;;0.00;0.00;;;;;;;;;;4963638;28;20055;-70
2023/08/28 00:42:26;;;;;;;0.00;0.00;;;;;;;;;;4947928;29;20054;-69
2023/08/28 00:44:54;;;;;;;0.00;0.00;;;;;;;;;;4946992;29;20124;-70
2023/08/28 00:47:21;;;;;;;0.00;0.00;;;;;;;;;;4947799;29;20055;-67
2023/08/28 00:49:49;;;;;;;4.03;3.83;;;;;;;;;;4946122;28;20067;-67
2023/08/28 00:52:17;;;;;;;0.00;0.00;;;;;;;;;;4943218;29;20118;-67
2023/08/28 00:54:44;;;;;;;0.00;0.00;;;;;;;;;;4944986;28;20608;-67
2023/08/28 00:57:13;;;;;;;0.00;0.00;;;;;;;;;;4937664;28;20497;-67
2023/08/28 00:59:40;;;;;;;0.00;0.00;;;;;;;;;;4942079;28;20083;-67
2023/08/28 01:02:08;;;;;;;0.00;0.00;;;;;;;;;;4945117;29;20055;-67
2023/08/28 01:04:36;;;;;;;0.00;0.00;;;;;;;;;;4945884;29;20049;-67
2023/08/28 01:07:15;;;;;;;0.00;0.00;;;;;;;;;;4947556;29;20081;-67
2023/08/28 01:09:52;;;;;;;0.00;0.00;;;;;;;;;;4946837;29;20058;-68
2023/08/28 01:12:31;;;;;;;0.00;0.00;;;;;;;;;;4945509;29;20047;-67
2023/08/28 01:15:12;;;;;;;0.00;0.00;;;;;;;;;;4946129;29;20055;-68
2023/08/28 01:17:40;;;;;;;0.00;0.00;;;;;;;;;;4946327;29;20063;-67
2023/08/28 01:20:13;;;;;;;0.00;0.00;;;;;;;;;;4945344;28;20110;-67
2023/08/28 01:22:58;;;;;;;0.00;0.00;;;;;;;;;;4947306;29;20067;-67
2023/08/28 01:25:30;;;;;;;0.00;0.00;;;;;;;;;;4959970;28;20043;-67
2023/08/28 01:27:59;;;;;;;0.63;0.63;;;;;;;;;;4946314;29;20066;-67
2023/08/28 01:30:27;;;;;;;0.00;0.00;;;;;;;;;;4944502;29;20051;-67
2023/08/28 01:32:55;;;;;;;0.00;0.00;;;;;;;;;;4945388;28;20145;-67
2023/08/28 01:35:25;;;;;;;4.55;4.35;;;;;;;;;;4946716;28;20062;-67
2023/08/28 01:37:53;;;;;;;0.00;0.00;;;;;;;;;;4945695;29;20118;-67
2023/08/28 01:40:22;;;;;;;0.00;0.00;;;;;;;;;;4943353;28;20090;-67
2023/08/28 01:42:50;;;;;;;0.00;0.00;;;;;;;;;;4929136;29;20800;-67
2023/08/28 01:45:18;;;;;;;0.00;0.00;;;;;;;;;;4951460;28;20058;-67
2023/08/28 01:47:47;;;;;;;0.00;0.00;;;;;;;;;;4926228;29;20055;-67
2023/08/28 01:50:15;;;;;;;62.22;57.95;;;;;;;;;;4946115;28;20047;-67
2023/08/28 01:52:43;;;;;;;114.07;107.30;;;;;;;;;;4945961;29;20079;-67
2023/08/28 01:55:10;;;;;;;0.00;0.00;;;;;;;;;;4947033;29;20047;-67
2023/08/28 01:57:38;;;;;;;0.10;0.10;;;;;;;;;;4927812;29;20083;-67
2023/08/28 02:00:06;;;;;;;5.78;5.50;;;;;;;;;;4941660;28;20364;-68
2023/08/28 02:02:43;;;;;;;58.75;55.30;;;;;;;;;;4945381;29;20429;-67
2023/08/28 02:05:11;;;;;;;9.30;8.88;;;;;;;;;;4958916;28;20043;-67
2023/08/28 02:07:38;;;;;;;0.10;0.10;;;;;;;;;;4945504;28;20074;-68
2023/08/28 02:10:06;;;;;;;0.10;0.10;;;;;;;;;;4959011;28;20391;-68
2023/08/28 02:12:34;;;;;;;0.10;0.10;;;;;;;;;;4920428;29;20051;-68
2023/08/28 02:15:02;;;;;;;0.00;0.00;;;;;;;;;;4944112;28;20224;-68
2023/08/28 02:17:30;;;;;;;8.20;7.82;;;;;;;;;;4945742;29;20047;-68
2023/08/28 02:19:59;;;;;;;0.00;0.00;;;;;;;;;;4944003;28;20055;-68
2023/08/28 02:22:28;;;;;;;0.00;0.00;;;;;;;;;;4945954;29;20490;-68
2023/08/28 02:24:58;;;;;;;0.00;0.00;;;;;;;;;;4944900;29;20056;-68
2023/08/28 02:27:26;;;;;;;0.00;0.00;;;;;;;;;;4945733;28;20121;-69
2023/08/28 02:29:53;;;;;;;0.00;0.00;;;;;;;;;;4942496;29;20130;-69
2023/08/28 02:32:21;;;;;;;0.00;0.00;;;;;;;;;;4946146;28;20051;-69
2023/08/28 02:34:49;;;;;;;0.00;0.00;;;;;;;;;;4945552;29;20043;-69
2023/08/28 02:37:16;;;;;;;0.00;0.00;;;;;;;;;;4945096;29;20418;-68
2023/08/28 02:39:44;;;;;;;0.00;0.00;;;;;;;;;;4944694;29;20061;-68
2023/08/28 02:42:11;;;;;;;0.00;0.00;;;;;;;;;;4946810;29;20430;-68
2023/08/28 02:44:39;;;;;;;6.95;6.60;;;;;;;;;;4943019;29;20047;-68
2023/08/28 02:47:06;;;;;;;0.00;0.00;;;;;;;;;;4944965;29;20097;-67
2023/08/28 02:49:34;;;;;;;0.00;0.00;;;;;;;;;;4945091;29;20096;-68
2023/08/28 02:52:01;;;;;;;0.00;0.00;;;;;;;;;;4944994;28;20051;-68
2023/08/28 02:54:29;;;;;;;0.00;0.00;;;;;;;;;;4938673;29;20134;-67
2023/08/28 02:56:56;;;;;;;0.00;0.00;;;;;;;;;;4960879;28;20417;-66
2023/08/28 02:59:24;;;;;;;0.00;0.00;;;;;;;;;;4944854;29;20043;-67
2023/08/28 03:01:52;;;;;;;0.00;0.00;;;;;;;;;;4923714;29;20043;-68
2023/08/28 03:04:19;;;;;;;36.38;33.63;;;;;;;;;;4944756;29;20374;-68
2023/08/28 03:06:47;;;;;;;18.08;17.17;;;;;;;;;;4944476;29;20039;-67
2023/08/28 03:09:15;;;;;;;59.92;55.97;;;;;;;;;;4944914;29;20082;-67
2023/08/28 03:11:43;;;;;;;0.15;0.15;;;;;;;;;;4945554;28;20047;-68
2023/08/28 03:14:10;;;;;;;3.70;3.55;;;;;;;;;;4961112;28;20137;-69
2023/08/28 03:16:38;;;;;;;0.00;0.00;;;;;;;;;;4945096;28;20432;-68
2023/08/28 03:19:06;;;;;;;53.65;49.72;;;;;;;;;;4944164;29;20051;-68
2023/08/28 03:21:36;;;;;;;0.32;0.32;;;;;;;;;;4944560;28;20053;-69
2023/08/28 03:24:04;;;;;;;0.00;0.00;;;;;;;;;;4945208;29;20246;-69
2023/08/28 03:26:32;;;;;;;36.75;34.15;;;;;;;;;;4945713;29;20043;-69
2023/08/28 03:29:00;;;;;;;19.42;18.42;;;;;;;;;;4944725;29;20058;-69
2023/08/28 03:31:28;;;;;;;22.27;21.13;;;;;;;;;;4945591;28;20095;-69
2023/08/28 03:33:56;;;;;;;9.20;8.57;;;;;;;;;;4942855;29;20490;-69
2023/08/28 03:36:23;;;;;;;34.05;32.08;;;;;;;;;;4943910;28;20055;-69
2023/08/28 03:38:52;;;;;;;5.03;4.80;;;;;;;;;;4947111;28;20054;-69
2023/08/28 03:41:19;;;;;;;2.72;2.63;;;;;;;;;;4951256;28;20418;-69
2023/08/28 03:43:47;;;;;;;0.00;0.00;;;;;;;;;;4951005;28;20047;-69
2023/08/28 03:46:14;;;;;;;0.00;0.00;;;;;;;;;;4965738;28;20051;-69
2023/08/28 03:48:42;;;;;;;9.23;8.73;;;;;;;;;;4934958;29;20043;-69
2023/08/28 03:51:11;;;;;;;5.68;5.40;;;;;;;;;;4948223;28;20098;-69
2023/08/28 03:53:42;;;;;;;0.10;0.10;;;;;;;;;;4949934;28;20086;-69
2023/08/28 03:56:09;;;;;;;0.00;0.00;;;;;;;;;;4964957;28;20063;-69
2023/08/28 03:58:37;;;;;;;0.00;0.00;;;;;;;;;;4950272;28;20417;-69
2023/08/28 04:01:07;;;;;;;3.92;3.72;;;;;;;;;;4940144;28;20057;-69
2023/08/28 04:03:37;;;;;;;0.00;0.00;;;;;;;;;;4947018;29;20059;-69
2023/08/28 04:06:08;;;;;;;13.35;12.35;;;;;;;;;;4948653;28;20528;-69
2023/08/28 04:08:36;;;;;;;0.00;0.00;;;;;;;;;;4960424;28;20167;-69
2023/08/28 04:11:04;;;;;;;5.43;4.88;;;;;;;;;;4947075;28;20102;-69
2023/08/28 04:13:32;;;;;;;0.73;0.73;;;;;;;;;;4926737;29;20078;-69
2023/08/28 04:16:00;;;;;;;0.10;0.10;;;;;;;;;;4929630;29;20421;-69
2023/08/28 04:18:28;;;;;;;0.38;0.38;;;;;;;;;;4933646;29;20057;-69
2023/08/28 04:20:55;;;;;;;0.00;0.00;;;;;;;;;;4946396;28;20506;-68
2023/08/28 04:23:23;;;;;;;12.00;11.40;;;;;;;;;;4948017;28;20054;-68
2023/08/28 04:25:51;;;;;;;0.00;0.00;;;;;;;;;;4949721;28;20039;-69
2023/08/28 04:28:19;;;;;;;1.20;1.20;;;;;;;;;;4964121;28;20051;-69
2023/08/28 04:30:48;;;;;;;0.00;0.00;;;;;;;;;;4929864;29;20071;-69
2023/08/28 04:33:18;;;;;;;0.00;0.00;;;;;;;;;;4939862;29;20054;-69
2023/08/28 04:35:45;;;;;;;3.95;3.75;;;;;;;;;;4950300;29;20773;-68
2023/08/28 04:38:14;;;;;;;4.93;4.72;;;;;;;;;;4930889;29;20145;-68
2023/08/28 04:40:42;;;;;;;13.90;13.05;;;;;;;;;;4944368;28;20055;-69
2023/08/28 04:43:11;;;;;;;80.32;73.28;;;;;;;;;;4959140;28;20852;-68
2023/08/28 04:45:39;;;;;;;15.88;14.75;;;;;;;;;;4941611;28;20047;-69
2023/08/28 04:48:07;;;;;;;0.15;0.15;;;;;;;;;;4939285;28;20039;-69
2023/08/28 04:50:35;;;;;;;0.00;0.00;;;;;;;;;;4948224;28;20047;-70
2023/08/28 04:53:03;;;;;;;8.15;7.75;;;;;;;;;;4925353;29;20058;-69
2023/08/28 04:55:32;;;;;;;0.55;0.55;;;;;;;;;;4924730;29;20143;-70
2023/08/28 04:57:59;;;;;;;1.25;1.25;;;;;;;;;;4941476;29;20446;-69
2023/08/28 05:00:27;;;;;;;0.85;0.85;;;;;;;;;;4938916;29;20058;-70
2023/08/28 05:02:54;;;;;;;0.00;0.00;;;;;;;;;;4955851;28;20137;-69
2023/08/28 05:05:22;;;;;;;0.55;0.52;;;;;;;;;;4925054;29;20040;-69
2023/08/28 05:07:50;;;;;;;4.85;4.65;;;;;;;;;;4923074;29;20113;-69
2023/08/28 05:10:18;;;;;;;9.13;8.68;;;;;;;;;;4952814;28;20390;-69
2023/08/28 05:12:45;;;;;;;0.00;0.00;;;;;;;;;;4954742;28;20139;-69
2023/08/28 05:15:13;;;;;;;7.90;7.53;;;;;;;;;;4929815;29;20102;-69
2023/08/28 05:17:40;;;;;;;7.25;6.93;;;;;;;;;;4935373;29;20075;-69
2023/08/28 05:20:09;;;;;;;11.02;10.45;;;;;;;;;;4939897;29;20305;-69
2023/08/28 05:22:36;;;;;;;8.20;7.72;;;;;;;;;;4943334;29;20134;-69
2023/08/28 05:25:04;;;;;;;16.15;14.70;;;;;;;;;;4944555;28;20055;-69
2023/08/28 05:27:32;;;;;;;4.30;4.00;;;;;;;;;;4940427;29;20125;-69
2023/08/28 05:30:00;;;;;;;0.00;0.00;;;;;;;;;;4938113;28;20048;-69
2023/08/28 05:32:27;;;;;;;0.20;0.20;;;;;;;;;;4944056;29;20139;-69
2023/08/28 05:34:58;;;;;;;65.22;60.00;;;;;;;;;;4946318;29;20433;-68
2023/08/28 05:37:26;;;;;;;0.08;0.08;;;;;;;;;;4939305;29;20055;-69
2023/08/28 05:39:53;;;;;;;38.90;36.30;;;;;;;;;;4942409;28;20102;-68
2023/08/28 05:42:21;;;;;;;8.80;8.15;;;;;;;;;;4943293;28;20460;-69
2023/08/28 05:44:49;;;;;;;10.27;9.70;;;;;;;;;;4954262;28;20045;-68
2023/08/28 05:47:16;;;;;;;0.03;0.03;;;;;;;;;;4942365;28;20754;-69
2023/08/28 05:49:44;;;;;;;16.90;15.82;;;;;;;;;;4941861;28;20050;-69
2023/08/28 05:52:12;;;;;;;27.00;24.95;;;;;;;;;;4941231;29;20039;-68
2023/08/28 05:54:39;;;;;;;26.60;24.90;;;;;;;;;;4922552;29;20043;-69
2023/08/28 05:57:07;;;;;;;22.98;21.13;;;;;;;;;;4937108;29;20232;-69
2023/08/28 05:59:35;;;;;;;0.00;0.00;;;;;;;;;;4936886;29;20056;-69
2023/08/28 06:02:04;;;;;;;40.35;36.83;;;;;;;;;;4936023;28;20059;-69
2023/08/28 06:04:33;;;;;;;8.77;8.02;;;;;;;;;;4953000;28;20137;-68
2023/08/28 06:07:00;;;;;;;3.35;3.22;;;;;;;;;;4940278;29;20051;-68
2023/08/28 06:09:28;;;;;;;0.00;0.00;;;;;;;;;;4947851;29;20521;-69
2023/08/28 06:11:56;;;;;;;1.02;1.02;;;;;;;;;;4948224;29;20043;-68
2023/08/28 06:14:24;;;;;;;7.57;7.13;;;;;;;;;;4947771;29;20479;-69
2023/08/28 06:16:51;;;;;;;0.00;0.00;;;;;;;;;;4948460;29;20058;-69
2023/08/28 06:19:19;;;;;;;1.17;1.17;;;;;;;;;;4946898;29;20055;-69
2023/08/28 06:21:48;;;;;;;0.00;0.00;;;;;;;;;;4949241;28;20063;-69
2023/08/28 06:24:15;;;;;;;2.75;2.65;;;;;;;;;;4945266;28;20421;-69
2023/08/28 06:26:43;;;;;;;10.70;10.00;;;;;;;;;;4948464;29;20070;-69
2023/08/28 06:29:11;;;;;;;2.28;2.17;;;;;;;;;;4947374;29;20091;-68
2023/08/28 06:31:38;;;;;;;0.00;0.00;;;;;;;;;;4954022;28;20043;-70
2023/08/28 06:34:06;;;;;;;0.10;0.10;;;;;;;;;;4940172;29;20051;-69
2023/08/28 06:36:34;;;;;;;1.67;1.65;;;;;;;;;;4948258;29;20666;-69
2023/08/28 06:39:02;;;;;;;7.10;6.75;;;;;;;;;;4948612;28;20062;-69
2023/08/28 06:41:30;;;;;;;29.60;27.92;;;;;;;;;;4947715;29;20103;-69
2023/08/28 06:44:07;;;;;;;14.45;13.52;;;;;;;;;;4947296;29;20049;-69
2023/08/28 06:46:36;;;;;;;0.10;0.00;;;;;;;;;;4931768;29;20055;-69
2023/08/28 06:49:04;;;;;;;26.15;24.35;;;;;;;;;;4947113;29;20047;-69
2023/08/28 06:51:32;;;;;;;14.45;13.70;;;;;;;;;;4949002;28;20520;-69
2023/08/28 06:54:00;;;;;;;0.00;0.00;;;;;;;;;;4947556;29;20133;-69
2023/08/28 06:56:29;;;;;;;30.05;28.40;;;;;;;;;;4947745;29;20055;-69
2023/08/28 06:58:57;;;;;;;25.20;23.65;;;;;;;;;;4948765;28;20055;-70
2023/08/28 07:01:24;;;;;;;0.00;0.00;;;;;;;;;;4947202;28;20082;-70
2023/08/28 07:03:52;;;;;;;0.00;0.00;;;;;;;;;;4940967;29;20063;-70
2023/08/28 07:06:20;;;;;;;0.77;0.77;;;;;;;;;;4947878;29;20426;-68
2023/08/28 07:08:47;;;;;;;2.75;2.65;;;;;;;;;;4947382;29;20055;-69
2023/08/28 07:11:15;;;;;;;2.25;2.15;;;;;;;;;;4946886;29;20057;-69
2023/08/28 07:13:43;;;;;;;14.90;14.05;;;;;;;;;;4947669;28;20554;-69
2023/08/28 07:16:10;;;;;;;14.88;14.05;;;;;;;;;;4947309;29;20142;-69
2023/08/28 07:18:38;;;;;;;0.00;0.00;;;;;;;;;;4939144;29;20054;-68
2023/08/28 07:21:05;;;;;;;0.00;0.00;;;;;;;;;;4931524;29;20063;-69
2023/08/28 07:23:34;;;;;;;0.40;0.40;;;;;;;;;;4947207;29;20061;-69
2023/08/28 07:26:02;;;;;;;51.47;48.22;;;;;;;;;;4947538;29;20513;-69
2023/08/28 07:28:31;;;;;;;0.10;0.10;;;;;;;;;;4947161;29;20389;-69
2023/08/28 07:31:00;;;;;;;1.02;1.02;;;;;;;;;;4946962;29;20085;-69
2023/08/28 07:33:27;;;;;;;0.43;0.43;;;;;;;;;;4946844;29;20549;-69
2023/08/28 07:35:55;;;;;;;7.40;6.85;;;;;;;;;;4948508;29;20078;-69
2023/08/28 07:38:22;;;;;;;113.72;106.95;;;;;;;;;;4931401;29;20466;-70
2023/08/28 07:40:50;;;;;;;3.08;2.97;;;;;;;;;;4947391;29;20537;-70
2023/08/28 07:43:18;;;;;;;8.60;8.20;;;;;;;;;;4948083;28;20059;-69
2023/08/28 07:45:45;;;;;;;27.50;25.95;;;;;;;;;;4947021;29;20046;-70
2023/08/28 07:48:13;;;;;;;0.43;0.43;;;;;;;;;;4948394;29;20051;-70
2023/08/28 07:50:41;;;;;;;0.10;0.10;;;;;;;;;;4948206;29;20420;-69
2023/08/28 07:53:09;;;;;;;11.75;11.10;;;;;;;;;;4948434;28;20043;-69
2023/08/28 07:55:37;;;;;;;2.05;1.95;;;;;;;;;;4943341;29;20066;-70
2023/08/28 07:58:05;;;;;;;2.65;2.55;;;;;;;;;;4959132;28;20078;-69
2023/08/28 08:00:34;;;;;;;1.27;1.27;;;;;;;;;;4946771;29;20637;-70
2023/08/28 08:03:03;;;;;;;0.10;0.10;;;;;;;;;;4931722;29;20047;-70
2023/08/28 08:05:31;;;;;;;13.25;12.27;;;;;;;;;;4948230;29;20057;-70
2023/08/28 08:07:59;;;;;;;8.63;8.15;;;;;;;;;;4930993;29;20071;-70
2023/08/28 08:10:27;;;;;;;9.60;9.13;;;;;;;;;;4946734;29;20054;-69
2023/08/28 08:12:54;;;;;;;0.65;0.65;;;;;;;;;;4946102;29;20044;-69
2023/08/28 08:15:22;;;;;;;3.33;3.20;;;;;;;;;;4927278;29;20647;-69
2023/08/28 08:17:49;;;;;;;0.00;0.00;;;;;;;;;;4929528;29;20514;-69
2023/08/28 08:20:17;;;;;;;5.28;5.05;;;;;;;;;;4938362;29;20059;-70
2023/08/28 08:22:46;;;;;;;0.00;0.00;;;;;;;;;;4948564;29;20114;-72
2023/08/28 08:25:14;;;;;;;19.02;18.05;;;;;;;;;;4946667;28;20138;-71
2023/08/28 08:27:44;;;;;;;12.43;9.07;;;;;;;;;;4950616;29;20469;-72
2023/08/28 08:30:13;;;;;;;7.20;6.82;;;;;;;;;;4951669;28;20106;-73
2023/08/28 08:32:43;;;;;;;14.93;14.07;;;;;;;;;;4951836;28;20055;-74
2023/08/28 08:35:12;;;;;;;0.00;0.00;;;;;;;;;;4950499;29;20086;-72
2023/08/28 08:37:41;;;;;;;9.80;9.23;;;;;;;;;;4951763;28;20161;-72
2023/08/28 08:40:13;;;;;;;19.40;18.27;;;;;;;;;;4934354;29;20051;-73
2023/08/28 08:42:40;;;;;;;;;;;;;;;;;;4950817;29;20114;-72
2023/08/28 08:45:09;;;;;;;0.05;0.05;;;;;;;;;;4951465;28;20156;-71
2023/08/28 08:47:39;;;;;;;0.10;0.10;;;;;;;;;;4934357;29;20047;-73
2023/08/28 08:50:09;;;;;;;0.75;0.75;;;;;;;;;;4961948;28;20055;-72
2023/08/28 08:52:38;;;;;;;237.82;216.40;;;;;;;;;;4951667;28;20501;-71
2023/08/28 08:55:17;;;;;;;244.77;223.05;;;;;;;;;;4951068;28;20058;-71
2023/08/28 08:57:48;;;;;;;32.20;29.60;;;;;;;;;;4926949;29;20059;-73
2023/08/28 09:00:17;;;;;;;263.23;242.75;;;;;;;;;;4949263;28;20359;-73
2023/08/28 09:02:46;;;;;;;36.08;33.08;;;;;;;;;;4951181;28;20557;-70
2023/08/28 09:05:16;;;;;;;16.48;15.55;;;;;;;;;;4960582;28;20515;-73
2023/08/28 09:07:44;;;;;;;35.33;33.47;;;;;;;;;;4950682;28;20055;-72
2023/08/28 09:10:14;;;;;;;0.00;0.00;;;;;;;;;;4951200;29;20339;-72
2023/08/28 09:12:42;;;;;;;55.08;51.55;;;;;;;;;;4949684;29;20477;-72
2023/08/28 09:15:11;;;;;;;26.27;24.52;;;;;;;;;;4950857;29;20467;-72
2023/08/28 09:17:39;;;;;;;1.73;1.70;;;;;;;;;;4949757;29;20059;-72
2023/08/28 09:20:13;;;;;;;19.48;18.30;;;;;;;;;;4940562;28;20145;-72
2023/08/28 09:22:48;;;;;;;11.02;10.38;;;;;;;;;;4948813;29;20054;-72
2023/08/28 09:25:21;;;;;;;8.45;8.00;;;;;;;;;;4949551;28;20058;-73
2023/08/28 09:27:50;;;;;;;9.35;8.88;;;;;;;;;;4940489;29;20051;-73
2023/08/28 09:30:31;;;;;;;5.07;4.68;;;;;;;;;;4930833;29;20111;-74
2023/08/28 09:33:00;;;;;;;8.63;8.13;;;;;;;;;;4944940;29;20150;-73
2023/08/28 09:35:34;;;;;;;19.17;17.52;;;;;;;;;;4948757;28;20139;-73
2023/08/28 09:38:02;;;;;;;45.60;42.30;;;;;;;;;;4932644;29;20106;-73
2023/08/28 09:40:31;;;;;;;55.63;51.97;;;;;;;;;;4947967;28;20130;-72
2023/08/28 09:42:59;;;;;;;82.80;77.63;;;;;;;;;;4941641;29;20070;-72
2023/08/28 09:45:33;;;;;;;53.08;49.58;;;;;;;;;;4932879;29;20130;-72
2023/08/28 09:48:04;;;;;;;107.85;100.97;;;;;;;;;;4948500;28;20387;-72
2023/08/28 09:50:33;;;;;;;114.82;106.55;;;;;;;;;;4948526;28;20075;-71
2023/08/28 09:53:10;;;;;;;0.00;0.00;;;;;;;;;;4944320;29;20058;-72
2023/08/28 09:55:39;;;;;;;1.10;1.10;;;;;;;;;;4948318;28;20133;-73
2023/08/28 09:58:10;;;;;;;15.00;13.98;;;;;;;;;;4948643;28;20110;-72
2023/08/28 10:00:41;;;;;;;;;;;;;;;;;;4948799;28;20147;-72
2023/08/28 10:03:13;;;;;;;36.42;34.22;;;;;;;;;;4947274;29;20333;-72
2023/08/28 10:05:43;;;;;;;135.07;124.78;;;;;;;;;;4939535;29;20047;-72
2023/08/28 10:08:12;;;;;;;4.28;3.97;;;;;;;;;;4949477;28;20047;-71
2023/08/28 10:10:45;;;;;;;88.40;81.82;;;;;;;;;;4942364;29;20051;-71
2023/08/28 10:13:17;;;;;;;36.78;33.47;;;;;;;;;;4948044;29;20043;-71
2023/08/28 10:15:50;;;;;;;186.13;166.88;;;;;;;;;;4947697;29;20109;-71
2023/08/28 10:18:26;;;;;;;24.20;22.65;;;;;;;;;;4948531;28;20110;-73
2023/08/28 10:20:55;;;;;;;19.83;18.73;;;;;;;;;;4947601;28;20425;-74
2023/08/28 10:23:22;;;;;;;38.58;35.40;;;;;;;;;;4946495;28;20171;-72
2023/08/28 10:25:53;;;;;;;61.38;58.08;;;;;;;;;;4945459;28;20066;-71
2023/08/28 10:28:21;;;;;;;0.25;0.17;;;;;;;;;;4947140;29;20110;-73
2023/08/28 10:30:52;;;;;;;11.68;10.85;;;;;;;;;;4954496;28;20378;-73
2023/08/28 10:33:21;;;;;;;0.00;0.00;;;;;;;;;;4957375;28;20047;-72
2023/08/28 10:35:51;;;;;;;50.50;47.45;;;;;;;;;;4950180;28;20058;-75
2023/08/28 10:38:20;;;;;;;0.05;0.05;;;;;;;;;;4954557;28;20820;-72
2023/08/28 10:40:48;;;;;;;7.75;7.32;;;;;;;;;;4934542;29;20114;-72
2023/08/28 10:43:19;;;;;;;14.60;13.60;;;;;;;;;;4947549;29;20406;-72
2023/08/28 10:45:48;;;;;;;0.00;0.00;;;;;;;;;;4952207;28;20078;-73
2023/08/28 10:48:18;;;;;;;0.00;0.00;;;;;;;;;;4946014;28;20302;-72
2023/08/28 10:50:46;;;;;;;9.90;9.25;;;;;;;;;;4948209;29;20055;-72
2023/08/28 10:53:15;;;;;;;0.20;0.20;;;;;;;;;;4950904;28;20130;-73
2023/08/28 10:55:54;;;;;;;8.65;8.20;;;;;;;;;;4951809;28;20781;-73
2023/08/28 10:58:22;;;;;;;0.10;0.10;;;;;;;;;;4940418;28;20449;-73
2023/08/28 11:01:17;;;;;;;3.40;3.30;;;;;;;;;;4946082;28;20054;-74
2023/08/28 11:04:08;;;;;;;5.32;5.05;;;;;;;;;;4951233;28;20655;-73
2023/08/28 11:06:36;;;;;;;7.00;6.55;;;;;;;;;;4928476;28;20055;-73
2023/08/28 11:09:22;;;;;;;0.65;0.65;;;;;;;;;;4945961;29;20097;-73
2023/08/28 11:11:50;;;;;;;0.00;0.00;;;;;;;;;;4922578;29;20055;-73
2023/08/28 11:14:17;;;;;;;11.43;10.38;;;;;;;;;;4926796;29;20481;-73
2023/08/28 11:16:45;;;;;;;2.08;1.75;;;;;;;;;;4942881;29;20047;-73
2023/08/28 11:19:12;;;;;;;8.57;8.10;;;;;;;;;;4942718;29;20434;-74
2023/08/28 11:21:44;;;;;;;2.00;1.92;;;;;;;;;;4944135;29;20058;-74
2023/08/28 11:24:24;;;;;;;13.35;12.55;;;;;;;;;;4940501;29;20430;-73
2023/08/28 11:26:55;;;;;;;9.18;8.48;;;;;;;;;;4940611;29;20118;-73
2023/08/28 11:29:26;;;;;;;0.00;0.00;;;;;;;;;;4921826;29;20114;-73
2023/08/28 11:31:54;;;;;;;0.10;0.10;;;;;;;;;;4939265;28;20590;-73
2023/08/28 11:34:21;;;;;;;5.00;4.75;;;;;;;;;;4942555;29;20504;-72
2023/08/28 11:36:49;;;;;;;0.00;0.00;;;;;;;;;;4927223;29;20130;-71
2023/08/28 11:39:23;;;;;;;3.65;3.50;;;;;;;;;;4941336;29;20062;-72
2023/08/28 11:41:51;;;;;;;0.10;0.10;;;;;;;;;;4946454;29;20418;-73
2023/08/28 11:44:20;;;;;;;0.00;0.00;;;;;;;;;;4934718;29;20482;-73
2023/08/28 11:46:48;;;;;;;36.67;34.42;;;;;;;;;;4944612;29;20529;-72
2023/08/28 11:49:15;;;;;;;0.00;0.00;;;;;;;;;;4941656;29;20043;-73
2023/08/28 11:51:43;;;;;;;44.08;34.83;;;;;;;;;;4927782;29;20506;-73
2023/08/28 11:54:10;;;;;;;17.73;16.38;;;;;;;;;;4947654;29;20126;-72
2023/08/28 11:56:41;;;;;;;0.05;0.05;;;;;;;;;;4948114;29;20051;-73
2023/08/28 11:59:08;;;;;;;0.10;0.10;;;;;;;;;;4924934;29;20039;-72
2023/08/28 12:01:36;;;;;;;0.00;0.00;;;;;;;;;;4952266;28;20134;-73
2023/08/28 12:04:07;;;;;;;1.50;1.50;;;;;;;;;;4951903;29;20054;-73
2023/08/28 12:06:42;;;;;;;0.28;0.28;;;;;;;;;;4940130;29;20497;-72
2023/08/28 12:09:12;;;;;;;20.30;18.85;;;;;;;;;;4951127;29;20043;-71
2023/08/28 12:11:40;;;;;;;13.43;12.63;;;;;;;;;;4957057;28;20734;-72
2023/08/28 12:14:15;;;;;;;5.63;5.35;;;;;;;;;;4951371;29;20055;-72
2023/08/28 12:16:42;;;;;;;0.65;0.65;;;;;;;;;;4957276;28;20046;-73
2023/08/28 12:19:10;;;;;;;0.00;0.00;;;;;;;;;;4946596;29;20036;-74
2023/08/28 12:21:38;;;;;;;4.75;4.53;;;;;;;;;;4949673;28;20074;-72
2023/08/28 12:24:10;;;;;;;2.67;2.58;;;;;;;;;;4943567;29;20062;-73
2023/08/28 12:26:41;;;;;;;12.20;11.48;;;;;;;;;;4952143;29;20049;-72
2023/08/28 12:29:08;;;;;;;97.13;91.07;;;;;;;;;;4934401;29;20054;-71
2023/08/28 12:31:37;;;;;;;16.85;15.90;;;;;;;;;;4951429;28;20390;-72
2023/08/28 12:34:10;;;;;;;0.08;0.08;;;;;;;;;;4951605;29;20131;-72
2023/08/28 12:36:40;;;;;;;5.90;5.55;;;;;;;;;;4951605;29;20051;-71
2023/08/28 12:39:15;;;;;;;10.38;9.85;;;;;;;;;;4951461;29;20106;-72
2023/08/28 12:41:53;;;;;;;23.65;22.25;;;;;;;;;;4951489;28;20417;-71
2023/08/28 12:44:21;;;;;;;0.00;0.00;;;;;;;;;;4951558;29;20136;-72
2023/08/28 12:46:50;;;;;;;0.20;0.20;;;;;;;;;;4951309;29;20126;-72
2023/08/28 12:49:17;;;;;;;2.15;2.05;;;;;;;;;;4948643;29;20047;-72
2023/08/28 12:51:45;;;;;;;11.95;11.38;;;;;;;;;;4944354;28;20043;-72
2023/08/28 12:54:13;;;;;;;2.00;0.52;;;;;;;;;;4951158;29;20527;-72
2023/08/28 12:56:40;;;;;;;0.00;0.00;;;;;;;;;;4951492;29;20253;-71
2023/08/28 12:59:09;;;;;;;0.00;0.00;;;;;;;;;;4951883;29;20047;-72
2023/08/28 13:01:37;;;;;;;0.10;0.10;;;;;;;;;;4950523;29;20039;-72
2023/08/28 13:04:05;;;;;;;41.95;39.65;;;;;;;;;;4957873;28;20425;-72
2023/08/28 13:06:33;;;;;;;0.00;0.00;;;;;;;;;;4950950;29;20058;-72
2023/08/28 13:09:00;;;;;;;6.72;6.40;;;;;;;;;;4951544;29;20051;-72
2023/08/28 13:11:28;;;;;;;0.00;0.00;;;;;;;;;;4949795;28;20134;-73
2023/08/28 13:13:55;;;;;;;10.65;10.07;;;;;;;;;;4934658;29;20430;-72
2023/08/28 13:16:23;;;;;;;0.00;0.00;;;;;;;;;;4951267;29;20094;-73
2023/08/28 13:18:51;;;;;;;0.45;0.45;;;;;;;;;;4943959;29;20056;-72
2023/08/28 13:21:18;;;;;;;0.75;0.75;;;;;;;;;;4931868;29;20566;-73
2023/08/28 13:23:46;;;;;;;55.25;50.65;;;;;;;;;;4949820;29;20581;-72
2023/08/28 13:26:14;;;;;;;4.50;4.30;;;;;;;;;;4950953;29;20043;-73
2023/08/28 13:28:42;;;;;;;34.92;33.10;;;;;;;;;;4950661;29;20134;-73
2023/08/28 13:31:11;;;;;;;0.00;0.00;;;;;;;;;;4952288;28;20055;-72
2023/08/28 13:33:38;;;;;;;0.05;0.05;;;;;;;;;;4951038;28;20478;-73
2023/08/28 13:36:07;;;;;;;0.00;0.00;;;;;;;;;;4952289;29;20066;-73
2023/08/28 13:38:35;;;;;;;0.00;0.00;;;;;;;;;;4961611;28;20081;-72
2023/08/28 13:41:03;;;;;;;0.00;0.00;;;;;;;;;;4950825;29;20506;-72
2023/08/28 13:43:30;;;;;;;0.10;0.10;;;;;;;;;;4950967;29;20051;-73
2023/08/28 13:45:58;;;;;;;0.00;0.00;;;;;;;;;;4942927;29;20140;-73
2023/08/28 13:48:26;;;;;;;6.82;6.50;;;;;;;;;;4933922;29;20461;-74
2023/08/28 13:50:54;;;;;;;0.20;0.20;;;;;;;;;;4950550;29;20051;-73
2023/08/28 13:53:21;;;;;;;8.85;8.32;;;;;;;;;;4950702;29;20051;-72
2023/08/28 13:55:49;;;;;;;37.28;34.88;;;;;;;;;;4950189;29;20564;-71
2023/08/28 13:58:21;;;;;;;11.02;10.43;;;;;;;;;;4949057;28;20630;-74
2023/08/28 14:00:59;;;;;;;4.05;3.83;;;;;;;;;;4951215;28;20091;-72
2023/08/28 14:03:27;;;;;;;0.00;0.00;;;;;;;;;;4950352;29;20047;-73
2023/08/28 14:06:05;;;;;;;3.47;3.35;;;;;;;;;;4950556;28;20498;-73
2023/08/28 14:08:33;;;;;;;2.83;2.72;;;;;;;;;;4950279;29;20054;-72
2023/08/28 14:11:07;;;;;;;1.25;1.25;;;;;;;;;;4933103;29;20043;-73
2023/08/28 14:13:36;;;;;;;0.00;0.00;;;;;;;;;;4963050;28;20927;-72
2023/08/28 14:16:04;;;;;;;0.00;0.00;;;;;;;;;;4950172;29;20069;-72
2023/08/28 14:18:32;;;;;;;10.55;9.93;;;;;;;;;;4951312;28;20051;-72
2023/08/28 14:21:00;;;;;;;7.85;7.43;;;;;;;;;;4951118;28;20051;-72
2023/08/28 14:23:28;;;;;;;0.00;0.00;;;;;;;;;;4958931;28;20510;-72
2023/08/28 14:26:02;;;;;;;0.00;0.00;;;;;;;;;;4950121;29;20156;-72
2023/08/28 14:28:30;;;;;;;13.15;12.15;;;;;;;;;;4950155;28;20154;-72
2023/08/28 14:30:58;;;;;;;14.77;13.77;;;;;;;;;;4933870;29;20118;-71
2023/08/28 14:33:26;;;;;;;9.85;9.32;;;;;;;;;;4950506;28;20051;-72
2023/08/28 14:35:53;;;;;;;0.40;0.40;;;;;;;;;;4949837;29;20528;-72
2023/08/28 14:38:21;;;;;;;40.72;37.70;;;;;;;;;;4948697;29;20059;-72
2023/08/28 14:40:52;;;;;;;8.68;8.02;;;;;;;;;;4948811;29;20441;-72
2023/08/28 14:43:20;;;;;;;0.00;0.00;;;;;;;;;;4942978;29;20382;-72
2023/08/28 14:45:47;;;;;;;0.00;0.00;;;;;;;;;;4926173;29;20467;-72